Details for FedEx at KEWR




Go Back


Latest METAR
Local Time

KEWR 220951Z 26007KT 10SM FEW025 FEW060 SCT190 BKN230 23/21 A2998 RMK AO2 SLP150 T02280206
22/09/2018, 05:55:46

Description
Results
FedEx Logo
Number of Pilots based at KEWR
0 Pilots Based here
Number of FedEx Flights Departed from KEWR
1 Flights Departed
Number of FedEx Flights Arrived at KEWR
0 Flights Arrived
Number of FedEx Schedules Departing from KEWR
97 Schedules
Number of FedEx Schedules Arriving at KEWR
91 Schedules
Number of FedEx Schedules Departing from KEWR availible today
21 Schedules Today
Number of FedEx Schedules Arriving at KEWR availible today
17 Schedules Today
Average Landing Rate at KEWR
-180 fpm
FedEx Average Landing Rate at KEWR
0 fpm
Total Fuel Purchased at KEWR by FedEx
114.31 kgs / 252.01 lbs

Pilots Based at KEWR


Pilot ID
Pilot Name
Pilot Rank
No. of Flights
No. of Flying Hours
There are no pilots assigned to this hub!   Will you be the first?
Content